Haukur — OZ2119 — position and weather

sailwx.info

Track history (hours):
 
Tides and Currents Weather Stations Pressure Air Temp Water Temp Dewpoint Dewpoint Depression Visibility Wind Speed Wind Dir Waves Ship Positions

Haukur

Last reported at 2014-Sep-14 07:27 UTC. Time now 2014-Sep-15 09:29 UTC.
Position N 66°02' E 012°39'.

Length 75 m; draft 3.8 m.

Type: Cargo ship. MMSI: 231812000.

Date/timePositionNaut miles runAvg speedWind from/ knotsBaromVisibWave heightAir tempDewpointWater temp
2014-Sep-14 07:27N 66°02' E 012°39'8 8.9
2014-Sep-14 06:33N 66°10' E 012°39'6 5.6
2014-Sep-14 05:33N 66°15' E 012°31'1 0.8
2014-Sep-14 04:33N 66°15' E 012°30'7 6.8
2014-Sep-14 03:33N 66°17' E 012°13'  
2014-Sep-09 03:32N 63°39' W 021°58'7 7.5
2014-Sep-09 02:33N 63°41' W 022°14'30 6.9
2014-Sep-08 22:11N 64°04' W 022°59'6 8.9
2014-Sep-08 21:33N 64°09' W 022°51'8 7.7
2014-Sep-08 20:33N 64°05' W 022°35'  
2014-Sep-04 15:17N 62°06' W 008°16'22 7.5
2014-Sep-04 12:21N 62°00' W 007°30'6 7.9
2014-Sep-04 11:33N 61°59' W 007°17'8 8.0
2014-Sep-04 10:33N 61°57' W 007°01'1010.0
2014-Sep-04 09:33N 61°53' W 006°41'8 8.2
2014-Sep-04 08:33N 61°50' W 006°25'7 7.4
2014-Sep-04 07:33N 61°48' W 006°10'  
Track history (hours):
 
Tides and Currents Weather Stations Pressure Air Temp Water Temp Dewpoint Dewpoint Depression Visibility Wind Speed Wind Dir Waves Ship Positions

Haukur

Last reported at 2014-Sep-14 07:27 UTC. Time now 2014-Sep-15 09:29 UTC.
Position N 66°02' E 012°39'.

Length 75 m; draft 3.8 m.

Type: Cargo ship. MMSI: 231812000.

Date/timePositionNaut miles runAvg speedWind from/ knotsBaromVisibWave heightAir tempDewpointWater temp
2014-Sep-14 07:27N 66°02' E 012°39'8 8.9
2014-Sep-14 06:33N 66°10' E 012°39'6 5.6
2014-Sep-14 05:33N 66°15' E 012°31'1 0.8
2014-Sep-14 04:33N 66°15' E 012°30'7 6.8
2014-Sep-14 03:33N 66°17' E 012°13'  
2014-Sep-09 03:32N 63°39' W 021°58'7 7.5
2014-Sep-09 02:33N 63°41' W 022°14'30 6.9
2014-Sep-08 22:11N 64°04' W 022°59'6 8.9
2014-Sep-08 21:33N 64°09' W 022°51'8 7.7
2014-Sep-08 20:33N 64°05' W 022°35'  
2014-Sep-04 15:17N 62°06' W 008°16'22 7.5
2014-Sep-04 12:21N 62°00' W 007°30'6 7.9
2014-Sep-04 11:33N 61°59' W 007°17'8 8.0
2014-Sep-04 10:33N 61°57' W 007°01'1010.0
2014-Sep-04 09:33N 61°53' W 006°41'8 8.2
2014-Sep-04 08:33N 61°50' W 006°25'7 7.4
2014-Sep-04 07:33N 61°48' W 006°10'  

Dump ship's entire track history